Time;durP1;ratioP1;P1;durP2;ratioP2;P2;SDS_P1;SDS_P2;PMS_P1;PMS_P2;Temp;Humidity;BMP_temperature;BMP_pressure;BME280_temperature;BME280_humidity;BME280_pressure;Samples;Min_cycle;Max_cycle;Signal;HPM_P1;HPM_P2
2021/04/13 00:01:19;;;;;;;11.07;7.05;;;4.20;71.60;;;;;;4983317;28;20051;-64
2021/04/13 00:03:44;;;;;;;13.00;7.68;;;4.30;71.90;;;;;;4982612;28;20165;-64
2021/04/13 00:06:14;;;;;;;12.35;8.68;;;4.20;71.20;;;;;;4983098;28;20109;-64
2021/04/13 00:08:47;;;;;;;11.95;8.35;;;4.30;71.50;;;;;;4979859;28;20045;-64
2021/04/13 00:11:14;;;;;;;11.75;8.10;;;4.20;71.60;;;;;;4979220;28;20030;-64
2021/04/13 00:13:43;;;;;;;11.98;8.63;;;4.30;71.60;;;;;;4982615;28;20059;-63
2021/04/13 00:16:21;;;;;;;13.38;9.25;;;4.20;71.70;;;;;;4993981;28;20109;-63
2021/04/13 00:18:51;;;;;;;13.52;8.65;;;4.20;72.00;;;;;;4983164;28;20038;-64
2021/04/13 00:21:31;;;;;;;12.57;8.77;;;4.20;71.50;;;;;;4981359;28;20038;-64
2021/04/13 00:24:07;;;;;;;13.85;8.65;;;4.20;71.90;;;;;;4980720;28;20042;-64
2021/04/13 00:26:37;;;;;;;12.27;8.88;;;4.20;71.50;;;;;;5001075;28;20031;-64
2021/04/13 00:29:11;;;;;;;12.57;9.40;;;4.10;71.60;;;;;;4995331;28;20030;-64
2021/04/13 00:31:43;;;;;;;14.45;9.40;;;4.00;71.80;;;;;;4981272;28;20492;-64
2021/04/13 00:34:24;;;;;;;13.13;9.45;;;4.10;71.90;;;;;;4981964;28;20515;-64
2021/04/13 00:37:16;;;;;;;13.95;9.73;;;4.00;72.00;;;;;;4987949;28;20045;-64
2021/04/13 00:39:44;;;;;;;13.45;9.68;;;3.90;72.40;;;;;;4968999;28;20458;-64
2021/04/13 00:42:20;;;;;;;14.43;9.80;;;3.90;72.30;;;;;;4979870;28;20030;-64
2021/04/13 00:44:55;;;;;;;13.68;9.88;;;3.90;72.50;;;;;;4981052;28;20085;-64
2021/04/13 00:47:51;;;;;;;14.07;9.35;;;3.80;72.60;;;;;;4992487;28;20536;-64
2021/04/13 00:50:33;;;;;;;12.55;9.07;;;3.90;73.40;;;;;;4981900;28;20499;-64
2021/04/13 00:53:05;;;;;;;12.60;9.02;;;3.80;72.70;;;;;;4982968;28;20035;-64
2021/04/13 00:55:42;;;;;;;14.20;9.88;;;3.70;72.50;;;;;;4979507;28;20035;-64
2021/04/13 00:58:18;;;;;;;13.30;9.93;;;3.70;72.60;;;;;;4981659;28;20038;-64
2021/04/13 01:00:57;;;;;;;13.52;9.95;;;3.80;72.70;;;;;;4983434;28;20030;-64
2021/04/13 01:03:30;;;;;;;15.35;10.35;;;3.70;72.60;;;;;;4980278;28;20035;-64
2021/04/13 01:06:01;;;;;;;16.60;11.02;;;3.70;72.70;;;;;;4981346;28;20049;-64
2021/04/13 01:08:38;;;;;;;18.10;10.90;;;3.60;72.70;;;;;;4980389;28;20407;-64
2021/04/13 01:11:13;;;;;;;15.98;11.65;;;3.60;73.20;;;;;;4976275;28;20050;-64
2021/04/13 01:14:00;;;;;;;19.02;12.02;;;3.60;73.30;;;;;;4980963;28;20389;-64
2021/04/13 01:16:33;;;;;;;15.68;10.88;;;3.50;74.00;;;;;;4980342;28;20037;-64
2021/04/13 01:19:10;;;;;;;17.65;11.77;;;3.40;73.60;;;;;;4980028;28;20438;-64
2021/04/13 01:22:01;;;;;;;18.20;12.43;;;3.40;73.70;;;;;;4981441;28;20113;-64
2021/04/13 01:24:36;;;;;;;23.08;13.82;;;3.30;74.50;;;;;;4981527;28;20513;-63
2021/04/13 01:27:09;;;;;;;22.23;13.65;;;3.30;74.20;;;;;;4981930;28;20774;-64
2021/04/13 01:29:38;;;;;;;22.30;12.27;;;3.20;74.60;;;;;;5012436;28;20089;-64
2021/04/13 01:32:09;;;;;;;20.10;12.93;;;3.20;74.40;;;;;;4982087;28;20035;-64
2021/04/13 01:34:50;;;;;;;18.92;12.43;;;3.10;74.50;;;;;;4981121;28;20049;-64
2021/04/13 01:37:51;;;;;;;18.90;12.45;;;3.10;75.70;;;;;;4980363;28;20031;-64
2021/04/13 01:43:31;;;;;;;18.75;13.02;;;3.00;75.10;;;;;;4956469;28;20034;-64
2021/04/13 01:46:00;;;;;;;16.48;11.65;;;3.00;74.80;;;;;;4981559;28;20912;-64
2021/04/13 01:48:30;;;;;;;17.05;11.93;;;2.90;74.50;;;;;;4981455;28;20058;-64
2021/04/13 01:51:04;;;;;;;19.17;12.48;;;2.90;74.60;;;;;;4980731;28;20516;-64
2021/04/13 01:53:38;;;;;;;18.58;12.02;;;2.80;74.80;;;;;;4978988;28;20039;-64
2021/04/13 01:56:10;;;;;;;16.42;11.65;;;2.70;75.00;;;;;;4980758;28;20043;-63
2021/04/13 01:59:25;;;;;;;16.42;11.55;;;2.70;74.80;;;;;;4986105;28;20514;-65
2021/04/13 02:01:57;;;;;;;17.30;11.82;;;2.60;76.00;;;;;;4967323;28;20593;-64
2021/04/13 02:04:36;;;;;;;16.60;12.20;;;2.50;75.00;;;;;;4979213;28;20034;-64
2021/04/13 02:07:19;;;;;;;18.23;12.32;;;2.50;75.60;;;;;;4992631;28;20037;-64
2021/04/13 02:09:52;;;;;;;19.83;12.38;;;2.40;75.50;;;;;;4980594;28;20039;-64
2021/04/13 02:12:35;;;;;;;20.40;13.33;;;2.40;75.70;;;;;;4975156;28;20122;-65
2021/04/13 02:15:29;;;;;;;19.90;12.70;;;2.40;76.20;;;;;;4980407;28;20038;-64
2021/04/13 02:18:06;;;;;;;19.08;12.90;;;2.30;76.00;;;;;;4968074;28;20584;-64
2021/04/13 02:20:41;;;;;;;28.58;13.30;;;2.30;76.00;;;;;;4980005;28;20034;-64
2021/04/13 02:23:09;;;;;;;43.72;13.93;;;2.30;76.50;;;;;;4980263;28;20038;-63
2021/04/13 02:25:40;;;;;;;30.40;14.73;;;2.30;76.50;;;;;;4994650;28;20034;-64
2021/04/13 02:28:10;;;;;;;42.20;14.85;;;2.30;76.70;;;;;;4980101;28;20113;-63
2021/04/13 02:30:42;;;;;;;73.13;14.00;;;2.30;76.70;;;;;;4980120;28;20161;-64
2021/04/13 02:33:32;;;;;;;30.05;14.23;;;2.30;76.90;;;;;;4981108;28;20038;-64
2021/04/13 02:36:05;;;;;;;60.78;15.35;;;2.30;77.60;;;;;;4980099;28;20030;-64
2021/04/13 02:38:32;;;;;;;63.33;13.88;;;2.30;77.00;;;;;;4978044;28;20126;-64
2021/04/13 02:41:11;;;;;;;62.88;14.10;;;2.30;76.90;;;;;;4978903;28;20041;-64
2021/04/13 02:43:43;;;;;;;38.42;12.77;;;2.20;76.90;;;;;;4978244;28;20030;-64
2021/04/13 02:46:16;;;;;;;22.77;12.18;;;2.20;76.90;;;;;;4979131;28;20499;-63
2021/04/13 02:48:53;;;;;;;21.10;12.55;;;2.20;76.90;;;;;;4978203;28;20459;-64
2021/04/13 02:51:22;;;;;;;22.30;12.60;;;2.30;77.10;;;;;;4980943;28;20052;-64
2021/04/13 02:53:55;;;;;;;19.73;13.18;;;2.30;77.10;;;;;;4979247;28;20408;-63
2021/04/13 02:56:38;;;;;;;18.48;11.93;;;2.40;77.10;;;;;;4979772;28;20039;-64
2021/04/13 02:59:12;;;;;;;20.38;11.85;;;2.40;76.90;;;;;;4980296;28;20050;-64
2021/04/13 03:02:05;;;;;;;20.05;12.90;;;2.50;76.70;;;;;;4979795;28;20101;-64
2021/04/13 03:04:44;;;;;;;19.02;12.05;;;2.50;76.70;;;;;;4979917;28;20030;-64
2021/04/13 03:07:16;;;;;;;18.75;11.77;;;2.60;76.10;;;;;;4980437;28;20580;-64
2021/04/13 03:09:43;;;;;;;21.33;13.55;;;2.60;76.00;;;;;;4980599;28;20510;-64
2021/04/13 03:12:15;;;;;;;20.35;12.05;;;2.60;75.90;;;;;;4974798;28;20406;-64
2021/04/13 03:14:54;;;;;;;20.15;12.60;;;2.60;75.80;;;;;;4977468;28;20091;-64
2021/04/13 03:17:23;;;;;;;17.15;11.35;;;2.60;75.90;;;;;;4977640;28;20034;-63
2021/04/13 03:19:55;;;;;;;16.98;11.55;;;2.60;75.50;;;;;;4975664;28;20154;-63
2021/04/13 03:22:23;;;;;;;20.17;12.65;;;2.60;75.30;;;;;;4980013;28;20027;-63
2021/04/13 03:24:54;;;;;;;16.90;11.48;;;2.60;75.10;;;;;;4979131;28;22421;-64
2021/04/13 03:27:30;;;;;;;19.17;12.55;;;2.60;75.00;;;;;;4976230;28;20113;-63
2021/04/13 03:30:23;;;;;;;21.48;13.60;;;2.60;75.00;;;;;;4980761;28;20030;-64
2021/04/13 03:32:57;;;;;;;20.70;13.65;;;2.60;75.00;;;;;;4980280;28;20048;-64
2021/04/13 03:35:26;;;;;;;17.52;12.40;;;2.70;74.70;;;;;;4980140;28;20857;-62
2021/04/13 03:37:55;;;;;;;17.60;10.73;;;2.70;74.60;;;;;;4981117;28;20499;-63
2021/04/13 03:40:25;;;;;;;14.65;10.48;;;2.70;74.50;;;;;;4980839;28;20134;-63
2021/04/13 03:43:02;;;;;;;15.50;10.60;;;2.70;74.30;;;;;;4980960;28;20499;-64
2021/04/13 03:45:33;;;;;;;15.32;10.48;;;2.80;74.30;;;;;;4977002;28;20035;-63
2021/04/13 03:48:09;;;;;;;17.85;11.55;;;2.80;74.00;;;;;;4997834;28;20031;-64
2021/04/13 03:50:40;;;;;;;15.98;10.32;;;2.80;74.10;;;;;;4980140;28;20034;-64
2021/04/13 03:53:16;;;;;;;24.00;10.13;;;2.80;74.10;;;;;;4980607;28;20031;-62
2021/04/13 03:56:08;;;;;;;17.95;10.63;;;2.80;74.10;;;;;;4977962;28;20034;-64
2021/04/13 03:58:41;;;;;;;17.55;9.77;;;2.80;74.20;;;;;;4976381;28;20030;-64
2021/04/13 04:01:15;;;;;;;17.73;9.98;;;2.80;73.70;;;;;;4976077;28;20039;-64
2021/04/13 04:03:46;;;;;;;11.73;7.73;;;2.80;73.40;;;;;;4977274;28;20031;-64
2021/04/13 04:06:34;;;;;;;13.20;9.18;;;2.80;73.30;;;;;;4995157;28;20031;-64
2021/04/13 04:09:19;;;;;;;14.40;9.75;;;2.80;72.90;;;;;;4976991;28;20037;-64
2021/04/13 04:11:51;;;;;;;;;;;2.80;73.10;;;;;;4975532;28;20142;-64
2021/04/13 04:14:23;;;;;;;16.05;9.60;;;2.80;73.30;;;;;;4978125;28;20367;-64
2021/04/13 04:17:00;;;;;;;15.95;10.35;;;2.80;72.70;;;;;;4997076;28;20039;-63
2021/04/13 04:19:28;;;;;;;17.15;10.80;;;2.80;72.70;;;;;;4980198;28;20042;-64
2021/04/13 04:22:05;;;;;;;15.98;10.57;;;2.80;72.80;;;;;;4980163;28;20054;-65
2021/04/13 04:24:38;;;;;;;15.07;9.95;;;2.80;72.70;;;;;;4978713;28;20038;-63
2021/04/13 04:27:13;;;;;;;15.25;10.10;;;2.70;72.60;;;;;;4996763;28;20038;-64
2021/04/13 04:30:12;;;;;;;17.88;10.88;;;2.70;72.50;;;;;;4983049;28;20114;-63
2021/04/13 04:32:44;;;;;;;16.33;10.90;;;2.70;72.60;;;;;;4987105;28;20547;-64
2021/04/13 04:35:29;;;;;;;20.70;11.82;;;2.60;72.40;;;;;;4981347;28;20031;-64
2021/04/13 04:38:25;;;;;;;18.88;11.32;;;2.60;72.30;;;;;;4981153;28;20042;-64
2021/04/13 04:41:06;;;;;;;17.20;10.88;;;2.60;72.80;;;;;;4979530;28;20070;-64
2021/04/13 04:43:43;;;;;;;15.77;9.32;;;2.60;72.60;;;;;;4982060;28;20255;-64
2021/04/13 04:46:32;;;;;;;27.30;10.50;;;2.60;72.90;;;;;;5003825;28;20042;-64
2021/04/13 04:49:13;;;;;;;26.40;10.43;;;2.60;72.70;;;;;;4976299;28;20447;-64
2021/04/13 04:51:48;;;;;;;20.80;9.65;;;2.60;72.70;;;;;;4994765;28;20034;-63
2021/04/13 04:54:16;;;;;;;26.02;11.15;;;2.50;72.60;;;;;;4982610;28;20106;-64
2021/04/13 04:56:44;;;;;;;23.02;9.40;;;2.60;72.60;;;;;;5000163;28;20077;-66
2021/04/13 04:59:14;;;;;;;28.33;10.35;;;2.60;72.70;;;;;;4982300;28;20388;-64
2021/04/13 05:01:42;;;;;;;24.45;8.52;;;2.50;72.60;;;;;;4981285;28;20041;-64
2021/04/13 05:04:13;;;;;;;15.45;8.20;;;2.50;72.30;;;;;;4982815;28;20046;-64
2021/04/13 05:06:41;;;;;;;14.57;8.30;;;2.50;72.40;;;;;;4992465;28;20397;-64
2021/04/13 05:09:14;;;;;;;15.23;8.82;;;2.50;72.20;;;;;;4981341;28;20034;-64
2021/04/13 05:11:39;;;;;;;14.20;8.10;;;2.50;72.40;;;;;;4977990;28;20022;-64
2021/04/13 05:14:09;;;;;;;21.05;9.38;;;2.50;72.30;;;;;;4996808;28;20550;-65
2021/04/13 05:16:39;;;;;;;16.15;8.82;;;2.40;72.30;;;;;;4980619;28;20031;-64
2021/04/13 05:19:07;;;;;;;17.75;9.32;;;2.50;72.40;;;;;;4982374;28;20049;-64
2021/04/13 05:21:37;;;;;;;20.20;9.38;;;2.50;72.30;;;;;;4981661;28;20503;-64
2021/04/13 05:24:03;;;;;;;20.20;8.73;;;2.50;72.30;;;;;;4982440;28;20079;-64
2021/04/13 05:26:33;;;;;;;28.13;10.60;;;2.50;72.40;;;;;;4994559;28;20115;-64
2021/04/13 05:29:06;;;;;;;20.70;9.85;;;2.50;72.60;;;;;;4987854;28;20331;-65
2021/04/13 05:31:36;;;;;;;15.52;8.88;;;2.50;72.60;;;;;;4981911;28;20134;-65
2021/04/13 05:34:12;;;;;;;25.67;10.30;;;2.50;72.40;;;;;;4981765;28;20034;-64
2021/04/13 05:36:38;;;;;;;28.50;9.57;;;2.50;72.30;;;;;;4980667;28;20030;-64
2021/04/13 05:39:11;;;;;;;28.48;9.43;;;2.40;72.20;;;;;;5002845;28;20038;-65
2021/04/13 05:41:42;;;;;;;20.88;8.48;;;2.40;72.40;;;;;;4981591;28;20129;-64
2021/04/13 05:44:10;;;;;;;21.70;8.93;;;2.40;72.40;;;;;;4980992;28;20507;-64
2021/04/13 05:46:37;;;;;;;17.08;8.77;;;2.40;72.60;;;;;;4980697;28;20044;-64
2021/04/13 05:49:03;;;;;;;19.83;9.13;;;2.40;72.80;;;;;;4980077;28;20473;-64
2021/04/13 05:51:33;;;;;;;25.92;9.07;;;2.40;72.70;;;;;;4981211;28;20053;-64
2021/04/13 05:54:04;;;;;;;22.38;8.98;;;2.40;72.70;;;;;;4981742;28;20031;-65
2021/04/13 05:56:38;;;;;;;15.98;9.18;;;2.30;73.00;;;;;;4979786;28;20039;-65
2021/04/13 05:59:08;;;;;;;27.85;9.85;;;2.30;73.20;;;;;;4980920;28;20511;-64
2021/04/13 06:01:37;;;;;;;25.80;10.40;;;2.30;73.30;;;;;;4980729;28;20663;-64
2021/04/13 06:04:13;;;;;;;31.27;11.02;;;2.30;73.40;;;;;;4981813;28;20496;-64
2021/04/13 06:06:41;;;;;;;23.50;10.55;;;2.40;73.80;;;;;;4986084;28;20105;-64
2021/04/13 06:09:07;;;;;;;22.13;11.00;;;2.40;73.70;;;;;;4981360;28;20035;-64
2021/04/13 06:11:40;;;;;;;22.52;10.77;;;2.40;73.80;;;;;;4992234;28;20066;-65
2021/04/13 06:14:08;;;;;;;19.17;10.63;;;2.50;74.30;;;;;;4980819;28;20543;-64
2021/04/13 06:16:38;;;;;;;14.07;10.20;;;2.50;74.20;;;;;;5001744;28;20070;-65
2021/04/13 06:19:11;;;;;;;13.02;9.20;;;2.50;74.10;;;;;;4981221;28;20047;-64
2021/04/13 06:21:42;;;;;;;11.55;8.48;;;2.50;74.30;;;;;;4993037;28;20507;-64
2021/04/13 06:24:12;;;;;;;12.60;9.15;;;2.50;74.30;;;;;;4978261;28;20793;-64
2021/04/13 06:26:40;;;;;;;13.27;8.55;;;2.50;74.40;;;;;;5000918;28;20081;-64
2021/04/13 06:29:08;;;;;;;10.45;8.20;;;2.50;74.50;;;;;;4981040;28;20052;-64
2021/04/13 06:31:36;;;;;;;12.52;8.43;;;2.60;74.60;;;;;;4981276;28;20030;-64
2021/04/13 06:34:06;;;;;;;11.55;8.82;;;2.60;74.80;;;;;;4980854;28;20038;-64
2021/04/13 06:36:35;;;;;;;14.38;9.73;;;2.60;74.80;;;;;;4979695;28;20070;-64
2021/04/13 06:39:00;;;;;;;14.07;9.90;;;2.70;74.80;;;;;;4981199;28;20045;-64
2021/04/13 06:41:41;;;;;;;13.55;9.57;;;2.80;74.60;;;;;;4980064;28;20031;-64
2021/04/13 06:44:12;;;;;;;15.65;10.00;;;2.80;74.70;;;;;;4984453;28;20059;-64
2021/04/13 06:46:50;;;;;;;12.90;9.65;;;2.80;74.50;;;;;;4979494;28;20032;-64
2021/04/13 06:49:52;;;;;;;13.23;9.70;;;2.90;74.60;;;;;;4980185;28;20031;-64
2021/04/13 06:52:29;;;;;;;12.18;9.35;;;2.90;75.20;;;;;;4980147;28;20157;-65
2021/04/13 06:55:28;;;;;;;12.90;9.85;;;3.00;74.70;;;;;;4980327;28;20049;-63
2021/04/13 06:58:08;;;;;;;12.50;9.38;;;3.00;74.80;;;;;;4980010;28;20439;-64
2021/04/13 07:00:42;;;;;;;16.98;10.18;;;3.10;74.60;;;;;;4978742;28;20041;-63
2021/04/13 07:03:18;;;;;;;16.13;9.95;;;3.20;74.50;;;;;;4976875;28;20045;-64
2021/04/13 07:05:50;;;;;;;13.07;9.25;;;3.20;74.30;;;;;;4980069;28;20611;-64
2021/04/13 07:08:43;;;;;;;14.82;9.85;;;3.20;74.70;;;;;;4979875;28;20042;-64
2021/04/13 07:11:26;;;;;;;13.70;10.20;;;3.30;74.80;;;;;;4979782;28;20408;-64
2021/04/13 07:14:19;;;;;;;16.08;9.75;;;3.40;74.20;;;;;;5000663;28;20042;-64
2021/04/13 07:17:00;;;;;;;13.88;10.85;;;3.40;73.70;;;;;;4990518;28;20034;-64
2021/04/13 07:19:35;;;;;;;15.68;10.52;;;3.50;73.80;;;;;;4981268;28;20038;-64
2021/04/13 07:22:33;;;;;;;15.63;10.77;;;3.50;73.70;;;;;;4979819;28;20030;-64
2021/04/13 07:25:20;;;;;;;14.43;9.68;;;3.60;73.30;;;;;;4979783;28;20585;-64
2021/04/13 07:27:48;;;;;;;12.73;9.38;;;3.60;73.10;;;;;;4980374;28;20027;-65
2021/04/13 07:30:37;;;;;;;12.68;9.63;;;3.70;73.10;;;;;;4980756;28;20109;-64
2021/04/13 07:33:05;;;;;;;13.73;9.20;;;3.70;73.10;;;;;;4979424;28;20560;-65
2021/04/13 07:35:37;;;;;;;13.00;9.30;;;3.80;73.10;;;;;;4979576;28;20034;-63
2021/04/13 07:38:19;;;;;;;13.55;9.57;;;3.90;73.40;;;;;;4979637;28;20038;-64
2021/04/13 07:40:49;;;;;;;13.40;9.35;;;4.00;73.30;;;;;;4979831;28;20038;-65
2021/04/13 07:43:31;;;;;;;15.60;9.45;;;4.10;73.10;;;;;;4980260;28;20051;-64
2021/04/13 07:45:59;;;;;;;12.65;8.57;;;4.10;73.10;;;;;;4980655;28;20135;-64
2021/04/13 07:48:52;;;;;;;11.98;9.25;;;4.30;73.00;;;;;;4979887;28;20517;-64
2021/04/13 07:51:26;;;;;;;12.48;9.15;;;4.30;73.30;;;;;;4980308;28;20499;-64
2021/04/13 07:54:30;;;;;;;14.25;9.30;;;4.40;73.10;;;;;;4980418;28;20504;-64
2021/04/13 07:57:21;;;;;;;14.52;8.98;;;4.50;72.90;;;;;;4979045;28;20048;-64
2021/04/13 08:00:06;;;;;;;11.95;8.85;;;4.60;72.40;;;;;;4979435;28;20508;-64
2021/04/13 08:02:32;;;;;;;11.05;8.65;;;4.70;72.00;;;;;;4979816;28;20080;-64
2021/04/13 08:05:03;;;;;;;12.80;8.63;;;4.80;71.90;;;;;;5002010;28;20129;-65
2021/04/13 08:07:41;;;;;;;12.25;8.95;;;4.90;71.70;;;;;;4982262;28;20411;-64
2021/04/13 08:10:28;;;;;;;15.00;8.55;;;4.90;71.30;;;;;;5014047;28;20035;-64
2021/04/13 08:13:02;;;;;;;14.13;8.75;;;5.00;71.00;;;;;;4983658;28;20035;-64
2021/04/13 08:15:49;;;;;;;11.43;9.05;;;5.10;71.00;;;;;;4995055;28;20045;-64
2021/04/13 08:18:22;;;;;;;10.45;8.40;;;5.20;70.80;;;;;;4983913;28;20041;-64
2021/04/13 08:20:49;;;;;;;11.10;8.15;;;5.20;70.50;;;;;;4982480;28;20042;-64
2021/04/13 08:23:31;;;;;;;10.48;7.82;;;5.30;70.50;;;;;;4987163;28;20503;-65
2021/04/13 08:26:13;;;;;;;10.98;7.88;;;5.40;70.40;;;;;;4983962;28;20035;-64
2021/04/13 08:29:13;;;;;;;10.25;7.75;;;5.40;70.30;;;;;;4982925;28;20030;-65
2021/04/13 08:35:34;;;;;;;9.25;7.65;;;5.60;69.90;;;;;;4957874;28;20042;-64
2021/04/13 08:38:18;;;;;;;9.18;7.60;;;5.80;70.00;;;;;;4958006;28;20503;-64
2021/04/13 08:41:08;;;;;;;10.88;8.07;;;5.90;69.80;;;;;;4998467;28;20042;-64
2021/04/13 08:43:51;;;;;;;11.63;7.90;;;6.00;69.80;;;;;;4983715;28;20403;-65
2021/04/13 08:46:37;;;;;;;13.13;8.30;;;6.10;69.30;;;;;;4980718;28;20495;-64
2021/04/13 08:49:23;;;;;;;13.18;8.40;;;6.20;69.30;;;;;;4982559;28;20027;-64
2021/04/13 08:52:09;;;;;;;9.00;7.53;;;6.30;69.10;;;;;;4983611;28;20395;-64
2021/04/13 08:54:37;;;;;;;10.10;8.13;;;6.50;69.10;;;;;;4982231;28;20038;-64
2021/04/13 08:57:17;;;;;;;9.95;7.88;;;6.60;68.60;;;;;;4982363;28;20041;-64
2021/04/13 08:59:52;;;;;;;10.50;7.40;;;6.70;68.10;;;;;;4981526;28;20511;-64
2021/04/13 09:02:24;;;;;;;8.95;7.80;;;6.70;67.30;;;;;;4983345;28;20359;-64
2021/04/13 09:05:05;;;;;;;11.07;8.18;;;6.80;66.60;;;;;;4982086;28;20061;-64
2021/04/13 09:07:53;;;;;;;9.63;7.80;;;6.80;65.90;;;;;;4983212;28;20042;-64
2021/04/13 09:10:36;;;;;;;11.07;8.27;;;6.80;65.50;;;;;;4981695;28;20034;-64
2021/04/13 09:13:09;;;;;;;9.60;7.70;;;6.80;64.90;;;;;;4981992;28;20034;-64
2021/04/13 09:15:51;;;;;;;8.93;7.82;;;6.70;63.80;;;;;;4982408;28;20069;-65
2021/04/13 09:18:28;;;;;;;8.32;6.70;;;6.70;62.30;;;;;;4982638;28;20042;-64
2021/04/13 09:21:25;;;;;;;8.93;6.75;;;6.70;62.70;;;;;;4981208;28;20086;-64
2021/04/13 09:24:14;;;;;;;8.68;7.10;;;6.60;61.80;;;;;;4983086;28;20045;-65
2021/04/13 09:26:57;;;;;;;10.18;7.78;;;6.60;61.10;;;;;;4982892;28;20033;-64
2021/04/13 09:29:37;;;;;;;9.88;6.93;;;6.60;61.00;;;;;;4983269;28;20512;-64
2021/04/13 09:32:26;;;;;;;9.80;7.40;;;6.50;62.50;;;;;;4984183;28;20697;-65
2021/04/13 09:35:18;;;;;;;9.35;7.68;;;6.50;62.80;;;;;;4979780;28;20034;-64
2021/04/13 09:38:04;;;;;;;10.73;8.23;;;6.50;62.00;;;;;;4981745;28;20046;-64
2021/04/13 09:40:38;;;;;;;7.90;6.88;;;6.60;62.90;;;;;;4982187;28;20031;-65
2021/04/13 09:43:39;;;;;;;8.77;6.65;;;6.60;62.60;;;;;;4983332;28;20027;-64
2021/04/13 09:46:19;;;;;;;8.85;6.10;;;6.60;61.40;;;;;;4980149;28;20042;-65
2021/04/13 09:49:21;;;;;;;8.80;6.55;;;6.60;61.60;;;;;;4982279;28;20038;-64
2021/04/13 09:52:31;;;;;;;9.75;6.95;;;6.60;60.30;;;;;;4981036;28;20035;-64
2021/04/13 09:55:24;;;;;;;9.07;7.55;;;6.60;61.50;;;;;;4918830;28;20162;-64
2021/04/13 09:58:23;;;;;;;9.50;7.75;;;6.60;60.60;;;;;;4981731;28;20023;-64
2021/04/13 10:01:21;;;;;;;10.00;7.82;;;6.70;60.70;;;;;;4981089;28;20416;-64
2021/04/13 10:04:05;;;;;;;12.20;8.23;;;6.70;59.10;;;;;;4982117;28;20041;-64
2021/04/13 10:06:38;;;;;;;11.10;8.05;;;6.60;60.50;;;;;;4981087;28;20061;-64
2021/04/13 10:09:17;;;;;;;9.00;8.05;;;6.60;60.50;;;;;;4981466;28;20026;-64
2021/04/13 10:12:06;;;;;;;9.48;8.07;;;6.50;60.40;;;;;;4999213;28;20057;-64
2021/04/13 10:15:11;;;;;;;9.75;7.25;;;6.50;59.60;;;;;;4981036;28;20022;-64
2021/04/13 10:18:37;;;;;;;7.60;6.78;;;6.40;60.00;;;;;;4981596;28;20121;-64
2021/04/13 10:21:30;;;;;;;7.85;7.05;;;6.40;60.00;;;;;;4940017;28;20418;-63
2021/04/13 10:24:10;;;;;;;10.18;7.05;;;6.40;60.80;;;;;;4940025;28;20126;-65
2021/04/13 10:26:54;;;;;;;8.82;6.80;;;6.40;61.30;;;;;;4980131;28;20543;-64
2021/04/13 10:29:41;;;;;;;9.50;7.35;;;6.40;59.30;;;;;;4981499;28;20037;-64
2021/04/13 10:32:45;;;;;;;10.88;7.72;;;6.50;60.40;;;;;;4982076;28;20033;-64
2021/04/13 10:35:41;;;;;;;9.02;7.22;;;6.50;59.80;;;;;;4981321;28;20153;-64
2021/04/13 10:38:41;;;;;;;8.80;7.05;;;6.60;59.90;;;;;;4980945;28;20158;-65
2021/04/13 10:41:31;;;;;;;8.68;6.47;;;6.60;58.50;;;;;;4996474;28;20515;-64
2021/04/13 10:44:20;;;;;;;8.50;6.50;;;6.70;59.30;;;;;;4981774;28;20075;-64
2021/04/13 10:47:05;;;;;;;9.65;7.65;;;6.80;59.60;;;;;;4980437;28;20026;-64
2021/04/13 10:50:26;;;;;;;9.40;7.30;;;6.80;59.50;;;;;;4995424;28;20495;-64
2021/04/13 10:53:28;;;;;;;9.50;6.93;;;6.90;57.90;;;;;;4981064;28;20672;-64
2021/04/13 10:56:38;;;;;;;7.45;5.75;;;6.90;56.80;;;;;;4980323;28;20117;-64
2021/04/13 10:59:20;;;;;;;8.18;6.43;;;7.00;57.90;;;;;;4980545;28;20030;-64
2021/04/13 11:02:10;;;;;;;6.40;5.80;;;7.00;56.70;;;;;;4979530;28;20035;-65
2021/04/13 11:04:59;;;;;;;10.48;6.35;;;7.00;56.70;;;;;;4980822;28;20038;-65
2021/04/13 11:07:52;;;;;;;8.98;6.93;;;7.10;56.20;;;;;;4983233;28;20043;-65
2021/04/13 11:10:36;;;;;;;9.00;7.10;;;7.10;56.90;;;;;;4979249;28;20030;-65
2021/04/13 11:13:21;;;;;;;11.27;6.50;;;7.20;56.40;;;;;;4994381;28;20038;-65
2021/04/13 11:16:17;;;;;;;7.35;6.15;;;7.30;55.80;;;;;;4980253;28;20114;-65
2021/04/13 11:19:02;;;;;;;7.93;6.35;;;7.30;55.80;;;;;;4984956;28;20034;-65
2021/04/13 11:21:28;;;;;;;;;;;7.40;54.60;;;;;;4981211;28;20026;-65
2021/04/13 11:24:31;;;;;;;6.72;6.03;;;7.40;52.00;;;;;;5001538;28;19918;-65
2021/04/13 11:27:35;;;;;;;6.07;5.47;;;7.40;55.30;;;;;;4999043;28;20030;-65
2021/04/13 11:30:32;;;;;;;7.30;5.95;;;7.40;55.40;;;;;;4980720;28;20027;-65
2021/04/13 11:33:31;;;;;;;6.10;5.20;;;7.50;55.90;;;;;;4979865;28;20030;-65
2021/04/13 11:35:59;;;;;;;5.80;5.30;;;7.60;56.00;;;;;;4980307;28;20038;-65
2021/04/13 11:38:49;;;;;;;5.78;5.28;;;7.70;55.80;;;;;;4991887;28;20058;-64
2021/04/13 11:41:35;;;;;;;6.28;5.47;;;7.80;55.60;;;;;;4979865;28;20538;-65
2021/04/13 11:44:12;;;;;;;6.05;4.80;;;7.90;55.80;;;;;;4981339;28;20038;-65
2021/04/13 11:46:48;;;;;;;5.95;5.45;;;8.00;56.10;;;;;;4982014;28;20495;-64
2021/04/13 11:49:24;;;;;;;6.10;5.50;;;8.20;55.10;;;;;;4982879;28;20038;-65
2021/04/13 11:52:46;;;;;;;7.10;5.95;;;8.30;54.00;;;;;;4983030;28;20030;-65
2021/04/13 11:55:38;;;;;;;8.13;6.18;;;8.40;52.70;;;;;;4944383;28;20154;-65
2021/04/13 11:58:23;;;;;;;6.70;5.90;;;8.40;53.10;;;;;;4982677;28;20135;-65
2021/04/13 12:01:17;;;;;;;7.05;5.97;;;8.40;53.30;;;;;;4982518;28;20042;-64
2021/04/13 12:04:09;;;;;;;6.43;5.50;;;8.40;52.10;;;;;;4982976;28;20035;-65
2021/04/13 12:07:02;;;;;;;5.93;5.32;;;8.40;52.90;;;;;;4981927;28;20038;-65
2021/04/13 12:09:58;;;;;;;7.22;6.05;;;8.40;52.80;;;;;;4981932;28;20035;-65
2021/04/13 12:12:31;;;;;;;6.53;5.82;;;8.30;52.80;;;;;;4980806;28;20353;-65
2021/04/13 12:15:05;;;;;;;5.28;4.78;;;8.30;53.70;;;;;;4983120;28;20031;-65
2021/04/13 12:17:33;;;;;;;6.30;5.22;;;8.30;53.50;;;;;;4985000;28;20026;-65
2021/04/13 12:20:20;;;;;;;6.57;5.50;;;8.30;54.10;;;;;;4861195;28;3531723;-65
2021/04/13 12:22:50;;;;;;;7.57;5.70;;;8.30;51.40;;;;;;4982934;28;20507;-64
2021/04/13 12:25:39;;;;;;;6.78;5.82;;;8.30;52.20;;;;;;4984149;28;20038;-65
2021/04/13 12:28:18;;;;;;;5.85;5.05;;;8.30;51.70;;;;;;4983995;28;20043;-65
2021/04/13 12:30:46;;;;;;;5.38;4.88;;;8.20;53.00;;;;;;4984076;28;20118;-65
2021/04/13 12:33:29;;;;;;;5.75;4.90;;;8.30;52.70;;;;;;4983879;28;20117;-65
2021/04/13 12:36:03;;;;;;;6.55;5.93;;;8.40;51.50;;;;;;4983344;28;20031;-65
2021/04/13 12:38:49;;;;;;;6.63;5.95;;;8.40;53.70;;;;;;4982495;28;20106;-66
2021/04/13 12:41:25;;;;;;;5.75;5.25;;;8.50;54.50;;;;;;4983461;28;20113;-65
2021/04/13 12:44:11;;;;;;;5.18;4.45;;;8.60;54.40;;;;;;4983119;28;20133;-65
2021/04/13 12:46:40;;;;;;;8.52;5.47;;;8.70;54.20;;;;;;4976938;28;20023;-65
2021/04/13 12:49:15;;;;;;;7.65;5.63;;;8.80;53.50;;;;;;4983621;28;20069;-64
2021/04/13 12:52:00;;;;;;;5.03;4.60;;;8.80;51.70;;;;;;4983374;28;20055;-65
2021/04/13 12:54:41;;;;;;;6.05;5.32;;;8.70;53.00;;;;;;4985973;28;20444;-65
2021/04/13 12:57:15;;;;;;;6.80;6.10;;;8.80;52.80;;;;;;4987276;28;20034;-65
2021/04/13 12:59:44;;;;;;;7.45;5.88;;;8.70;52.10;;;;;;5005046;28;20446;-65
2021/04/13 13:02:33;;;;;;;6.38;5.78;;;8.70;51.80;;;;;;4983382;28;20038;-65
2021/04/13 13:05:17;;;;;;;5.20;4.35;;;8.70;50.80;;;;;;4982741;28;20496;-65
2021/04/13 13:07:55;;;;;;;3.67;3.38;;;8.70;51.80;;;;;;4983122;28;20500;-65
2021/04/13 13:10:27;;;;;;;3.47;3.28;;;8.70;52.30;;;;;;4983678;28;20456;-65
2021/04/13 13:13:02;;;;;;;3.70;3.40;;;8.80;49.00;;;;;;4982319;28;20041;-65
2021/04/13 13:15:37;;;;;;;4.30;3.90;;;8.80;51.00;;;;;;4987482;28;20038;-65
2021/04/13 13:18:35;;;;;;;6.07;5.47;;;8.80;48.80;;;;;;4983150;28;20080;-65
2021/04/13 13:21:11;;;;;;;5.97;5.45;;;8.80;52.00;;;;;;4982333;28;20054;-65
2021/04/13 13:23:43;;;;;;;6.65;6.00;;;8.90;53.10;;;;;;4983286;28;20419;-65
2021/04/13 13:26:19;;;;;;;6.57;5.97;;;8.90;53.60;;;;;;4982504;28;20113;-65
2021/04/13 13:28:44;;;;;;;7.65;5.70;;;8.90;52.20;;;;;;4979692;28;20039;-65
2021/04/13 13:31:25;;;;;;;6.40;5.72;;;8.80;52.40;;;;;;4982647;28;20108;-65
2021/04/13 13:34:01;;;;;;;7.07;6.20;;;8.80;52.30;;;;;;4982222;28;20038;-65
2021/04/13 13:36:34;;;;;;;7.07;5.40;;;8.70;51.70;;;;;;4987139;28;20038;-65
2021/04/13 13:39:12;;;;;;;6.70;4.82;;;8.70;52.20;;;;;;4982441;28;20050;-65
2021/04/13 13:41:47;;;;;;;7.63;5.18;;;8.60;51.80;;;;;;4982968;28;20038;-65
2021/04/13 13:44:28;;;;;;;5.32;4.75;;;8.60;51.60;;;;;;4980850;28;20037;-65
2021/04/13 13:47:05;;;;;;;5.88;5.18;;;8.60;52.00;;;;;;4981430;28;20046;-65
2021/04/13 13:49:42;;;;;;;7.40;5.18;;;8.50;50.80;;;;;;4988248;28;20072;-65
2021/04/13 13:52:14;;;;;;;5.25;4.80;;;8.50;50.40;;;;;;4982170;28;20039;-65
2021/04/13 13:54:43;;;;;;;5.57;4.55;;;8.50;50.90;;;;;;4981873;28;20042;-65
2021/04/13 13:57:19;;;;;;;4.68;4.28;;;8.40;50.70;;;;;;4982611;28;20046;-65